Time;durP1;ratioP1;P1;durP2;ratioP2;P2;SDS_P1;SDS_P2;PMS_P1;PMS_P2;Temp;Humidity;BMP_temperature;BMP_pressure;BME280_temperature;BME280_humidity;BME280_pressure;Samples;Min_cycle;Max_cycle;Signal;HPM_P1;HPM_P2
2022/12/13 00:00:22;;;;;;;7.77;3.03;;;;;;;;;;5099632;28;20675;-61
2022/12/13 00:02:49;;;;;;;5.67;2.63;;;;;;;;;;5088505;28;20194;-61
2022/12/13 00:05:16;;;;;;;3.67;3.03;;;;;;;;;;5097006;28;20232;-61
2022/12/13 00:07:43;;;;;;;7.10;3.67;;;;;;;;;;5098783;28;20233;-61
2022/12/13 00:10:12;;;;;;;4.17;2.93;;;;;;;;;;5095670;28;20217;-61
2022/12/13 00:12:39;;;;;;;8.10;3.07;;;;;;;;;;5106983;28;20225;-61
2022/12/13 00:15:06;;;;;;;5.87;2.67;;;;;;;;;;5103721;28;20206;-61
2022/12/13 00:17:34;;;;;;;5.40;2.63;;;;;;;;;;5104998;28;20549;-62
2022/12/13 00:20:02;;;;;;;6.00;3.93;;;;;;;;;;5096789;28;20266;-61
2022/12/13 00:22:29;;;;;;;3.33;2.50;;;;;;;;;;5097858;28;20213;-61
2022/12/13 00:24:56;;;;;;;7.00;3.40;;;;;;;;;;5101731;28;20206;-61
2022/12/13 00:27:24;;;;;;;4.27;3.40;;;;;;;;;;5104698;28;20293;-61
2022/12/13 00:29:51;;;;;;;3.07;2.20;;;;;;;;;;5108548;27;20530;-61
2022/12/13 00:32:18;;;;;;;10.20;3.80;;;;;;;;;;5101497;27;20214;-61
2022/12/13 00:34:46;;;;;;;3.83;2.63;;;;;;;;;;5098001;28;20206;-61
2022/12/13 00:37:13;;;;;;;4.63;3.23;;;;;;;;;;5112446;27;20651;-61
2022/12/13 00:39:40;;;;;;;6.23;4.53;;;;;;;;;;5100497;27;20577;-61
2022/12/13 00:42:07;;;;;;;3.43;2.80;;;;;;;;;;5114675;27;20220;-61
2022/12/13 00:44:35;;;;;;;5.40;1.80;;;;;;;;;;5102542;28;20675;-61
2022/12/13 00:47:02;;;;;;;6.43;3.60;;;;;;;;;;5110919;28;20214;-61
2022/12/13 00:49:30;;;;;;;2.60;2.40;;;;;;;;;;5099509;27;20293;-61
2022/12/13 00:51:57;;;;;;;9.20;2.27;;;;;;;;;;5110057;28;20208;-61
2022/12/13 00:54:24;;;;;;;2.73;1.90;;;;;;;;;;5108455;27;20225;-60
2022/12/13 00:56:51;;;;;;;3.60;2.17;;;;;;;;;;5103527;27;20194;-60
2022/12/13 00:59:18;;;;;;;5.93;3.30;;;;;;;;;;5107432;28;20201;-60
2022/12/13 01:01:46;;;;;;;8.57;2.97;;;;;;;;;;5096783;27;20294;-60
2022/12/13 01:04:14;;;;;;;4.00;2.20;;;;;;;;;;5104228;28;20202;-60
2022/12/13 01:06:41;;;;;;;2.87;2.67;;;;;;;;;;5100347;28;20230;-60
2022/12/13 01:09:11;;;;;;;7.13;2.43;;;;;;;;;;5093564;28;20205;-60
2022/12/13 01:11:38;;;;;;;2.80;2.60;;;;;;;;;;5093332;28;20205;-61
2022/12/13 01:14:05;;;;;;;4.93;2.43;;;;;;;;;;5097208;28;20236;-60
2022/12/13 01:16:32;;;;;;;1.63;1.53;;;;;;;;;;5105880;28;20215;-60
2022/12/13 01:19:01;;;;;;;2.00;0.73;;;;;;;;;;5100426;28;20233;-59
2022/12/13 01:21:28;;;;;;;1.37;1.03;;;;;;;;;;5095840;28;20651;-60
2022/12/13 01:23:56;;;;;;;4.87;2.17;;;;;;;;;;5098717;27;20199;-59
2022/12/13 01:26:26;;;;;;;2.50;2.27;;;;;;;;;;5101043;27;20202;-60
2022/12/13 01:28:53;;;;;;;3.10;1.93;;;;;;;;;;5093275;28;20209;-62
2022/12/13 01:31:20;;;;;;;1.73;1.67;;;;;;;;;;5103719;28;20209;-61
2022/12/13 01:33:48;;;;;;;3.77;3.37;;;;;;;;;;5102530;28;20245;-62
2022/12/13 01:36:17;;;;;;;0.90;0.63;;;;;;;;;;5099368;28;20254;-62
2022/12/13 01:38:45;;;;;;;3.67;2.37;;;;;;;;;;5095664;28;20330;-61
2022/12/13 01:41:14;;;;;;;2.40;2.27;;;;;;;;;;5095485;28;20204;-62
2022/12/13 01:43:52;;;;;;;1.43;1.33;;;;;;;;;;5092676;28;20212;-61
2022/12/13 01:46:19;;;;;;;3.80;2.67;;;;;;;;;;5104399;28;20315;-61
2022/12/13 01:48:48;;;;;;;4.03;2.87;;;;;;;;;;5092373;28;20202;-61
2022/12/13 01:51:20;;;;;;;3.57;2.33;;;;;;;;;;5090285;28;20203;-61
2022/12/13 01:53:48;;;;;;;2.73;2.23;;;;;;;;;;5096080;28;20247;-62
2022/12/13 01:56:17;;;;;;;2.40;2.20;;;;;;;;;;5099141;28;20217;-61
2022/12/13 01:58:44;;;;;;;1.87;1.77;;;;;;;;;;5095995;28;20201;-61
2022/12/13 02:01:11;;;;;;;2.30;1.80;;;;;;;;;;5092616;28;20205;-61
2022/12/13 02:03:38;;;;;;;2.40;1.57;;;;;;;;;;5100112;27;20236;-61
2022/12/13 02:06:08;;;;;;;2.30;2.17;;;;;;;;;;5100316;28;20209;-61
2022/12/13 02:08:37;;;;;;;4.33;2.90;;;;;;;;;;5098156;28;20249;-60
2022/12/13 02:11:05;;;;;;;2.20;0.60;;;;;;;;;;5098418;28;20640;-60
2022/12/13 02:13:32;;;;;;;3.70;2.87;;;;;;;;;;5100565;28;20228;-61
2022/12/13 02:16:02;;;;;;;0.93;0.90;;;;;;;;;;5092984;28;20212;-60
2022/12/13 02:18:36;;;;;;;3.43;2.23;;;;;;;;;;5102423;28;20236;-60
2022/12/13 02:21:10;;;;;;;2.10;2.00;;;;;;;;;;5094720;28;20207;-60
2022/12/13 02:24:03;;;;;;;6.00;2.33;;;;;;;;;;5104112;28;20195;-61
2022/12/13 02:26:41;;;;;;;1.37;1.37;;;;;;;;;;5102877;28;20205;-60
2022/12/13 02:29:15;;;;;;;1.07;1.07;;;;;;;;;;5087436;28;20659;-60
2022/12/13 02:31:48;;;;;;;1.37;1.23;;;;;;;;;;5086631;28;20200;-60
2022/12/13 02:34:19;;;;;;;2.27;2.07;;;;;;;;;;5100531;28;20223;-60
2022/12/13 02:36:50;;;;;;;2.03;1.20;;;;;;;;;;5103085;28;20194;-60
2022/12/13 02:39:19;;;;;;;3.63;2.77;;;;;;;;;;5100450;28;20206;-60
2022/12/13 02:41:49;;;;;;;1.70;1.23;;;;;;;;;;5099632;28;20228;-61
2022/12/13 02:44:19;;;;;;;4.77;2.90;;;;;;;;;;5108271;28;20556;-60
2022/12/13 02:46:51;;;;;;;3.87;2.83;;;;;;;;;;5103452;28;20210;-60
2022/12/13 02:49:19;;;;;;;4.83;2.87;;;;;;;;;;5098868;28;20231;-61
2022/12/13 02:51:47;;;;;;;2.77;2.27;;;;;;;;;;5107451;28;20598;-60
2022/12/13 02:54:14;;;;;;;1.33;1.33;;;;;;;;;;5094767;28;20604;-60
2022/12/13 02:56:41;;;;;;;5.37;2.83;;;;;;;;;;5095085;28;20217;-60
2022/12/13 02:59:11;;;;;;;1.87;1.77;;;;;;;;;;5099133;28;20219;-60
2022/12/13 03:01:48;;;;;;;4.20;2.83;;;;;;;;;;5106023;28;20209;-60
2022/12/13 03:04:22;;;;;;;2.13;1.90;;;;;;;;;;5089839;28;20208;-60
2022/12/13 03:06:54;;;;;;;3.27;2.93;;;;;;;;;;5088674;28;20230;-61
2022/12/13 03:09:27;;;;;;;2.80;2.57;;;;;;;;;;5087339;28;20243;-60
2022/12/13 03:14:50;;;;;;;5.23;2.20;;;;;;;;;;5086879;28;20976;-60
2022/12/13 03:17:19;;;;;;;2.07;1.87;;;;;;;;;;5105965;28;20211;-60
2022/12/13 03:19:47;;;;;;;1.40;1.30;;;;;;;;;;5102455;28;20233;-61
2022/12/13 03:22:16;;;;;;;3.90;3.17;;;;;;;;;;5102445;28;20207;-61
2022/12/13 03:24:43;;;;;;;5.20;2.40;;;;;;;;;;5088674;28;20236;-60
2022/12/13 03:27:10;;;;;;;2.70;2.47;;;;;;;;;;5088037;28;20210;-61
2022/12/13 03:29:37;;;;;;;6.77;2.07;;;;;;;;;;5087527;28;20219;-61
2022/12/13 03:32:04;;;;;;;7.13;1.80;;;;;;;;;;5098361;28;20213;-61
2022/12/13 03:34:31;;;;;;;2.90;1.63;;;;;;;;;;5101796;28;20227;-61
2022/12/13 03:37:00;;;;;;;1.40;1.23;;;;;;;;;;5097410;28;20215;-60
2022/12/13 03:39:27;;;;;;;3.03;2.07;;;;;;;;;;5094132;28;20791;-61
2022/12/13 03:41:54;;;;;;;2.77;2.23;;;;;;;;;;5088781;28;20324;-60
2022/12/13 03:44:21;;;;;;;2.47;1.93;;;;;;;;;;5092855;28;20203;-61
2022/12/13 03:46:49;;;;;;;2.03;1.50;;;;;;;;;;5096533;28;20281;-60
2022/12/13 03:49:16;;;;;;;2.63;2.40;;;;;;;;;;5100970;28;20200;-61
2022/12/13 03:51:43;;;;;;;2.33;2.20;;;;;;;;;;5088969;28;20732;-60
2022/12/13 03:54:11;;;;;;;1.30;1.17;;;;;;;;;;5092898;28;20226;-61
2022/12/13 03:56:38;;;;;;;3.87;2.87;;;;;;;;;;5088704;28;20235;-61
2022/12/13 03:59:05;;;;;;;2.00;1.90;;;;;;;;;;5092909;28;20205;-60
2022/12/13 04:01:32;;;;;;;3.63;2.03;;;;;;;;;;5088257;28;20220;-61
2022/12/13 04:03:59;;;;;;;3.90;1.93;;;;;;;;;;5100619;28;20211;-60
2022/12/13 04:06:27;;;;;;;0.93;0.93;;;;;;;;;;5105321;28;20195;-61
2022/12/13 04:08:54;;;;;;;1.10;1.10;;;;;;;;;;5098683;28;20229;-61
2022/12/13 04:14:07;;;;;;;1.97;1.77;;;;;;;;;;5102549;28;20237;-60
2022/12/13 04:16:34;;;;;;;4.87;1.13;;;;;;;;;;5108832;28;20200;-59
2022/12/13 04:19:01;;;;;;;3.20;2.00;;;;;;;;;;5093711;28;20207;-60
2022/12/13 04:21:28;;;;;;;1.80;1.70;;;;;;;;;;5093303;28;20195;-59
2022/12/13 04:23:56;;;;;;;2.27;1.97;;;;;;;;;;5097330;28;20227;-59
2022/12/13 04:26:24;;;;;;;6.40;2.87;;;;;;;;;;5089626;28;20204;-60
2022/12/13 04:28:51;;;;;;;3.47;2.30;;;;;;;;;;5099826;28;20222;-60
2022/12/13 04:31:18;;;;;;;6.90;2.37;;;;;;;;;;5100945;28;20683;-59
2022/12/13 04:33:45;;;;;;;2.90;1.60;;;;;;;;;;5097232;28;20199;-61
2022/12/13 04:36:18;;;;;;;4.93;1.83;;;;;;;;;;5094629;28;20218;-60
2022/12/13 04:38:45;;;;;;;3.60;1.93;;;;;;;;;;5090574;28;20212;-60
2022/12/13 04:41:14;;;;;;;2.77;2.03;;;;;;;;;;5096478;28;20670;-60
2022/12/13 04:43:43;;;;;;;2.97;1.43;;;;;;;;;;5096373;28;20225;-60
2022/12/13 04:46:10;;;;;;;2.47;2.37;;;;;;;;;;5088585;28;20634;-60
2022/12/13 04:48:37;;;;;;;3.00;2.17;;;;;;;;;;5096074;28;20208;-60
2022/12/13 04:51:04;;;;;;;2.03;1.17;;;;;;;;;;5090709;28;20575;-60
2022/12/13 04:53:31;;;;;;;7.43;1.87;;;;;;;;;;5090270;28;20205;-60
2022/12/13 04:55:59;;;;;;;3.03;2.10;;;;;;;;;;5094931;28;20220;-60
2022/12/13 04:58:26;;;;;;;6.90;3.20;;;;;;;;;;5093428;28;20201;-60
2022/12/13 05:00:54;;;;;;;6.90;2.87;;;;;;;;;;5104251;28;20194;-60
2022/12/13 05:03:21;;;;;;;6.83;3.10;;;;;;;;;;5092960;28;20194;-60
2022/12/13 05:05:51;;;;;;;2.53;1.90;;;;;;;;;;5095911;28;20255;-60
2022/12/13 05:08:19;;;;;;;1.97;1.47;;;;;;;;;;5091046;28;20271;-60
2022/12/13 05:10:46;;;;;;;4.37;2.50;;;;;;;;;;5098117;28;20201;-60
2022/12/13 05:13:13;;;;;;;2.73;1.93;;;;;;;;;;5104139;28;20203;-61
2022/12/13 05:15:40;;;;;;;7.07;2.50;;;;;;;;;;5098450;28;20223;-60
2022/12/13 05:18:08;;;;;;;10.90;2.87;;;;;;;;;;5100775;28;20209;-62
2022/12/13 05:20:35;;;;;;;3.47;2.80;;;;;;;;;;5098460;28;20193;-62
2022/12/13 05:23:03;;;;;;;0.90;0.90;;;;;;;;;;5105873;28;20205;-62
2022/12/13 05:25:30;;;;;;;1.77;1.63;;;;;;;;;;5091073;28;20539;-61
2022/12/13 05:27:57;;;;;;;4.83;2.17;;;;;;;;;;5086641;28;20215;-61
2022/12/13 05:30:24;;;;;;;9.50;2.37;;;;;;;;;;5088935;28;20293;-62
2022/12/13 05:32:51;;;;;;;5.70;2.27;;;;;;;;;;5089554;28;20197;-62
2022/12/13 05:35:20;;;;;;;2.67;2.43;;;;;;;;;;5102871;28;20196;-62
2022/12/13 05:37:47;;;;;;;3.07;1.57;;;;;;;;;;5106920;28;20208;-59
2022/12/13 05:40:14;;;;;;;1.53;1.43;;;;;;;;;;5105194;28;20663;-62
2022/12/13 05:42:41;;;;;;;1.17;1.07;;;;;;;;;;5092620;28;20200;-62
2022/12/13 05:45:08;;;;;;;2.13;2.10;;;;;;;;;;5097152;28;20225;-60
2022/12/13 05:47:36;;;;;;;1.57;1.53;;;;;;;;;;5104994;28;20207;-60
2022/12/13 05:50:03;;;;;;;3.13;2.33;;;;;;;;;;5095447;28;20216;-60
2022/12/13 05:52:31;;;;;;;4.27;3.03;;;;;;;;;;5100432;28;20199;-60
2022/12/13 05:54:58;;;;;;;2.30;1.57;;;;;;;;;;5093314;28;20311;-61
2022/12/13 05:57:26;;;;;;;0.70;0.70;;;;;;;;;;5104851;28;20231;-60
2022/12/13 05:59:53;;;;;;;2.53;2.33;;;;;;;;;;5104407;28;20211;-60
2022/12/13 06:02:20;;;;;;;1.70;1.60;;;;;;;;;;5104458;28;20202;-60
2022/12/13 06:04:47;;;;;;;1.23;1.13;;;;;;;;;;5100156;28;20634;-60
2022/12/13 06:07:14;;;;;;;2.20;1.93;;;;;;;;;;5092339;27;20724;-60
2022/12/13 06:09:43;;;;;;;1.63;1.53;;;;;;;;;;5101037;28;20207;-61
2022/12/13 06:12:11;;;;;;;1.67;1.60;;;;;;;;;;5098567;28;20211;-60
2022/12/13 06:14:38;;;;;;;2.70;2.17;;;;;;;;;;5098042;28;20202;-59
2022/12/13 06:17:05;;;;;;;3.77;3.40;;;;;;;;;;5103031;28;20206;-60
2022/12/13 06:19:32;;;;;;;5.70;2.10;;;;;;;;;;5097376;28;20710;-61
2022/12/13 06:21:59;;;;;;;2.37;1.97;;;;;;;;;;5098423;28;20585;-61
2022/12/13 06:24:27;;;;;;;2.63;1.80;;;;;;;;;;5106660;28;20690;-61
2022/12/13 06:26:55;;;;;;;3.60;2.30;;;;;;;;;;5103685;28;20217;-61
2022/12/13 06:29:23;;;;;;;2.40;2.20;;;;;;;;;;5107102;28;20206;-61
2022/12/13 06:31:52;;;;;;;4.87;2.33;;;;;;;;;;5105710;28;20209;-59
2022/12/13 06:34:19;;;;;;;2.07;1.87;;;;;;;;;;5107745;28;20949;-59
2022/12/13 06:36:46;;;;;;;4.60;2.93;;;;;;;;;;5109295;28;20201;-60
2022/12/13 06:39:14;;;;;;;2.90;2.53;;;;;;;;;;5110473;27;20201;-60
2022/12/13 06:41:41;;;;;;;2.53;2.13;;;;;;;;;;5110081;28;20202;-60
2022/12/13 06:44:10;;;;;;;3.83;2.67;;;;;;;;;;5108097;28;20559;-60
2022/12/13 06:46:37;;;;;;;9.07;3.20;;;;;;;;;;5108769;28;20197;-59
2022/12/13 06:49:04;;;;;;;1.73;1.63;;;;;;;;;;5109089;27;20228;-60
2022/12/13 06:51:33;;;;;;;6.60;3.47;;;;;;;;;;5106478;28;20556;-60
2022/12/13 06:54:00;;;;;;;7.83;2.63;;;;;;;;;;5110175;28;20231;-61
2022/12/13 06:56:27;;;;;;;3.90;2.87;;;;;;;;;;5110119;27;20619;-60
2022/12/13 06:58:54;;;;;;;1.07;0.97;;;;;;;;;;5109616;28;20216;-59
2022/12/13 07:01:22;;;;;;;2.50;1.33;;;;;;;;;;5096205;28;20459;-60
2022/12/13 07:03:50;;;;;;;3.17;1.10;;;;;;;;;;5090010;28;20221;-60
2022/12/13 07:06:17;;;;;;;2.63;2.43;;;;;;;;;;5097292;28;20218;-60
2022/12/13 07:08:45;;;;;;;3.30;1.53;;;;;;;;;;5089502;28;20220;-60
2022/12/13 07:11:14;;;;;;;3.53;1.43;;;;;;;;;;5103767;28;20882;-59
2022/12/13 07:13:41;;;;;;;3.67;2.13;;;;;;;;;;5109353;28;20269;-60
2022/12/13 07:16:09;;;;;;;6.23;2.30;;;;;;;;;;5093735;28;20663;-60
2022/12/13 07:18:37;;;;;;;7.90;2.50;;;;;;;;;;5089050;28;20219;-62
2022/12/13 07:21:05;;;;;;;1.90;1.80;;;;;;;;;;5102399;28;20206;-60
2022/12/13 07:23:32;;;;;;;1.87;0.37;;;;;;;;;;5107454;28;20786;-61
2022/12/13 07:25:59;;;;;;;2.33;1.83;;;;;;;;;;5094990;28;20220;-60
2022/12/13 07:28:30;;;;;;;2.77;2.07;;;;;;;;;;5088882;28;20208;-61
2022/12/13 07:30:57;;;;;;;3.27;2.97;;;;;;;;;;5097111;28;20215;-61
2022/12/13 07:33:24;;;;;;;2.00;1.43;;;;;;;;;;5108269;28;20207;-60
2022/12/13 07:36:00;;;;;;;0.60;0.60;;;;;;;;;;5107032;28;20207;-60
2022/12/13 07:38:27;;;;;;;0.40;0.40;;;;;;;;;;5108913;28;20212;-60
2022/12/13 07:40:56;;;;;;;1.10;1.03;;;;;;;;;;5101277;28;20295;-60
2022/12/13 07:43:23;;;;;;;10.40;2.67;;;;;;;;;;5088396;28;20688;-60
2022/12/13 07:45:50;;;;;;;2.00;1.77;;;;;;;;;;5089538;28;20228;-60
2022/12/13 07:48:18;;;;;;;1.70;1.20;;;;;;;;;;5088368;28;20670;-59
2022/12/13 07:50:45;;;;;;;2.37;2.23;;;;;;;;;;5088812;28;20221;-61
2022/12/13 07:53:13;;;;;;;6.47;2.97;;;;;;;;;;5088573;28;20688;-60
2022/12/13 07:55:40;;;;;;;5.80;3.03;;;;;;;;;;5108618;28;20227;-60
2022/12/13 07:58:08;;;;;;;4.83;2.13;;;;;;;;;;5107662;28;20287;-60
2022/12/13 08:00:36;;;;;;;2.13;1.03;;;;;;;;;;5088166;28;20209;-60
2022/12/13 08:03:03;;;;;;;2.60;2.40;;;;;;;;;;5088078;28;20221;-60
2022/12/13 08:05:30;;;;;;;1.37;1.13;;;;;;;;;;5101916;28;20244;-60
2022/12/13 08:07:57;;;;;;;5.40;2.63;;;;;;;;;;5108534;28;20710;-60
2022/12/13 08:10:25;;;;;;;2.00;1.90;;;;;;;;;;5089350;28;20330;-61
2022/12/13 08:12:53;;;;;;;2.63;2.00;;;;;;;;;;5095147;28;20201;-60
2022/12/13 08:15:20;;;;;;;1.73;1.63;;;;;;;;;;5108365;28;20571;-60
2022/12/13 08:17:47;;;;;;;4.13;2.83;;;;;;;;;;5106500;28;20231;-65
2022/12/13 08:20:16;;;;;;;1.90;1.67;;;;;;;;;;5108150;28;20261;-60
2022/12/13 08:22:43;;;;;;;1.53;1.43;;;;;;;;;;5103087;28;20566;-60
2022/12/13 08:25:10;;;;;;;1.10;1.00;;;;;;;;;;5087897;28;20327;-60
2022/12/13 08:27:39;;;;;;;3.10;2.20;;;;;;;;;;5087561;28;20229;-60
2022/12/13 08:30:06;;;;;;;1.37;1.27;;;;;;;;;;5087487;28;20218;-60
2022/12/13 08:38:40;;;;;;;2.40;2.30;;;;;;;;;;5106795;28;20234;-59
2022/12/13 08:41:08;;;;;;;3.30;1.57;;;;;;;;;;5107941;28;20213;-60
2022/12/13 08:43:36;;;;;;;0.83;0.83;;;;;;;;;;5106881;28;20246;-60
2022/12/13 08:46:03;;;;;;;2.70;1.60;;;;;;;;;;5110759;28;20230;-61
2022/12/13 08:48:30;;;;;;;23.57;4.90;;;;;;;;;;5104540;28;20222;-59
2022/12/13 08:51:00;;;;;;;5.47;2.97;;;;;;;;;;5091469;28;20210;-59
2022/12/13 08:53:27;;;;;;;19.75;6.15;;;;;;;;;;5090787;28;20448;-58
2022/12/13 08:55:54;;;;;;;21.63;9.30;;;;;;;;;;5090082;28;20437;-59
2022/12/13 08:58:21;;;;;;;2.17;1.77;;;;;;;;;;5092354;28;20209;-62
2022/12/13 09:00:49;;;;;;;4.33;2.67;;;;;;;;;;5091292;28;20210;-60
2022/12/13 09:03:17;;;;;;;25.08;10.40;;;;;;;;;;5102311;28;20435;-60
2022/12/13 09:08:47;;;;;;;10.23;4.00;;;;;;;;;;5081523;28;20259;-60
2022/12/13 09:11:14;;;;;;;2.03;1.77;;;;;;;;;;5091317;28;20214;-60
2022/12/13 09:13:42;;;;;;;7.57;3.90;;;;;;;;;;5091537;28;20211;-59
2022/12/13 09:16:13;;;;;;;5.33;2.97;;;;;;;;;;5090888;28;20202;-60
2022/12/13 09:18:40;;;;;;;4.90;2.67;;;;;;;;;;5088794;28;20256;-60
2022/12/13 09:21:08;;;;;;;5.37;1.97;;;;;;;;;;5090387;28;20213;-59
2022/12/13 09:23:35;;;;;;;1.90;1.37;;;;;;;;;;5107938;28;20206;-61
2022/12/13 09:26:02;;;;;;;8.50;3.10;;;;;;;;;;5111072;28;20715;-58
2022/12/13 09:28:29;;;;;;;5.00;2.97;;;;;;;;;;5111007;28;20216;-60
2022/12/13 09:30:57;;;;;;;16.38;7.15;;;;;;;;;;5109627;27;20442;-59
2022/12/13 09:33:25;;;;;;;0.30;0.30;;;;;;;;;;5111234;28;20591;-60
2022/12/13 09:35:53;;;;;;;5.23;3.13;;;;;;;;;;5110569;28;20661;-60
2022/12/13 09:38:20;;;;;;;2.83;1.90;;;;;;;;;;5110463;28;20258;-60
2022/12/13 09:40:48;;;;;;;3.47;2.00;;;;;;;;;;5110735;28;20224;-60
2022/12/13 09:43:21;;;;;;;6.97;2.00;;;;;;;;;;5110380;28;20656;-60
2022/12/13 09:45:49;;;;;;;1.83;1.60;;;;;;;;;;5110598;28;20233;-60
2022/12/13 09:48:17;;;;;;;3.10;2.13;;;;;;;;;;5110803;28;20680;-60
2022/12/13 09:50:45;;;;;;;6.73;3.73;;;;;;;;;;5110714;28;20652;-60
2022/12/13 09:53:15;;;;;;;4.40;1.77;;;;;;;;;;5096097;28;20707;-61
2022/12/13 09:55:43;;;;;;;0.47;0.33;;;;;;;;;;5088633;28;20750;-60
2022/12/13 09:58:14;;;;;;;3.37;1.63;;;;;;;;;;5090048;28;20221;-60
2022/12/13 10:00:41;;;;;;;11.00;2.57;;;;;;;;;;5089885;28;20210;-63
2022/12/13 10:03:12;;;;;;;0.50;0.50;;;;;;;;;;5090081;28;20233;-60
2022/12/13 10:05:39;;;;;;;4.50;2.23;;;;;;;;;;5089763;28;20234;-62
2022/12/13 10:08:09;;;;;;;1.90;0.97;;;;;;;;;;5089453;28;20242;-59
2022/12/13 10:10:36;;;;;;;1.23;1.07;;;;;;;;;;5089997;28;20215;-61
2022/12/13 10:13:06;;;;;;;2.87;1.73;;;;;;;;;;5089355;28;20215;-60
2022/12/13 10:15:33;;;;;;;8.97;3.57;;;;;;;;;;5089616;28;20209;-61
2022/12/13 10:18:03;;;;;;;5.10;2.33;;;;;;;;;;5089958;28;20207;-59
2022/12/13 10:20:30;;;;;;;8.23;3.80;;;;;;;;;;5089529;28;20613;-60
2022/12/13 10:22:57;;;;;;;5.90;2.43;;;;;;;;;;5089153;28;20213;-60
2022/12/13 10:25:46;;;;;;;4.10;2.73;;;;;;;;;;5089343;28;20221;-61
2022/12/13 10:28:14;;;;;;;7.33;3.10;;;;;;;;;;5089216;28;20535;-60
2022/12/13 10:30:42;;;;;;;8.57;3.63;;;;;;;;;;5089502;28;20788;-59
2022/12/13 10:33:19;;;;;;;3.87;2.97;;;;;;;;;;5089707;28;20218;-60
2022/12/13 10:36:01;;;;;;;5.47;2.97;;;;;;;;;;5089570;28;20197;-60
2022/12/13 10:38:30;;;;;;;2.20;1.37;;;;;;;;;;5089385;28;20211;-60
2022/12/13 10:40:58;;;;;;;4.77;3.33;;;;;;;;;;5088909;28;20208;-61
2022/12/13 10:43:27;;;;;;;3.07;1.70;;;;;;;;;;5089283;28;20203;-59
2022/12/13 10:45:58;;;;;;;4.80;2.80;;;;;;;;;;5089254;28;20237;-60
2022/12/13 10:48:27;;;;;;;7.23;3.73;;;;;;;;;;5089333;28;20250;-60
2022/12/13 10:50:59;;;;;;;2.93;2.67;;;;;;;;;;5089143;28;20221;-60
2022/12/13 10:53:28;;;;;;;4.00;1.87;;;;;;;;;;5088979;28;20306;-60
2022/12/13 10:55:56;;;;;;;5.67;1.27;;;;;;;;;;5088854;28;20228;-61
2022/12/13 10:58:34;;;;;;;2.47;2.03;;;;;;;;;;5088851;28;20307;-60
2022/12/13 11:01:08;;;;;;;3.83;1.50;;;;;;;;;;5089025;28;20204;-60
2022/12/13 11:03:35;;;;;;;2.40;2.03;;;;;;;;;;5099247;28;20948;-60
2022/12/13 11:06:03;;;;;;;6.97;2.03;;;;;;;;;;5088726;28;20245;-60
2022/12/13 11:08:30;;;;;;;0.53;0.40;;;;;;;;;;5099798;28;20243;-60
2022/12/13 11:10:59;;;;;;;2.90;2.63;;;;;;;;;;5109402;28;20214;-60
2022/12/13 11:13:30;;;;;;;4.47;2.30;;;;;;;;;;5109021;28;20674;-60
2022/12/13 11:15:57;;;;;;;3.63;1.30;;;;;;;;;;5108790;28;20671;-60
2022/12/13 11:18:25;;;;;;;4.93;3.23;;;;;;;;;;5108412;27;20216;-60
2022/12/13 11:20:55;;;;;;;7.97;3.30;;;;;;;;;;5108660;28;20217;-60
2022/12/13 11:23:26;;;;;;;3.17;1.77;;;;;;;;;;5108235;28;20222;-60
2022/12/13 11:25:56;;;;;;;4.33;2.40;;;;;;;;;;5108428;28;20239;-60
2022/12/13 11:28:39;;;;;;;2.07;1.80;;;;;;;;;;5108411;28;20209;-60
2022/12/13 11:31:11;;;;;;;5.30;3.03;;;;;;;;;;5108962;28;20305;-60
2022/12/13 11:33:43;;;;;;;7.77;3.80;;;;;;;;;;5108404;28;20288;-60
2022/12/13 11:36:17;;;;;;;3.37;2.20;;;;;;;;;;5108938;28;20205;-60
2022/12/13 11:38:54;;;;;;;7.60;3.83;;;;;;;;;;5108640;28;20219;-60
2022/12/13 11:41:24;;;;;;;4.40;3.17;;;;;;;;;;5108321;28;20693;-60
2022/12/13 11:43:54;;;;;;;1.67;1.57;;;;;;;;;;5108365;28;20212;-61
2022/12/13 11:46:27;;;;;;;4.63;2.03;;;;;;;;;;5108355;28;20232;-60
2022/12/13 11:48:59;;;;;;;5.73;2.47;;;;;;;;;;5108551;28;20238;-60
2022/12/13 11:51:27;;;;;;;0.57;0.50;;;;;;;;;;5108176;28;20727;-60
2022/12/13 11:53:56;;;;;;;2.43;1.53;;;;;;;;;;5108240;28;20366;-60
2022/12/13 11:56:26;;;;;;;1.33;1.07;;;;;;;;;;5108240;28;20327;-59
2022/12/13 11:58:57;;;;;;;10.90;6.45;;;;;;;;;;5106731;28;20438;-58
2022/12/13 12:01:27;;;;;;;7.37;3.60;;;;;;;;;;5108314;28;20210;-60
2022/12/13 12:03:58;;;;;;;3.30;3.10;;;;;;;;;;5107928;28;20205;-60
2022/12/13 12:06:27;;;;;;;4.17;2.87;;;;;;;;;;5108145;28;20233;-61
2022/12/13 12:08:57;;;;;;;3.80;2.23;;;;;;;;;;5107555;28;20578;-61
2022/12/13 12:11:27;;;;;;;7.77;3.83;;;;;;;;;;5099839;28;20209;-60
2022/12/13 12:13:59;;;;;;;1.33;1.10;;;;;;;;;;5089880;28;20205;-60
2022/12/13 12:16:31;;;;;;;1.37;1.27;;;;;;;;;;5095027;28;20193;-59
2022/12/13 12:18:58;;;;;;;3.17;1.90;;;;;;;;;;5098470;28;20841;-70
2022/12/13 12:21:30;;;;;;;6.93;2.90;;;;;;;;;;5087724;28;20232;-60
2022/12/13 12:24:04;;;;;;;0.73;0.73;;;;;;;;;;5091491;28;20200;-60
2022/12/13 12:26:34;;;;;;;2.30;2.03;;;;;;;;;;5087618;28;20251;-60
2022/12/13 12:29:21;;;;;;;2.47;2.03;;;;;;;;;;5088255;28;20218;-61
2022/12/13 12:31:56;;;;;;;2.60;1.63;;;;;;;;;;5100288;28;20290;-63
2022/12/13 12:34:30;;;;;;;1.83;0.93;;;;;;;;;;5095180;28;20212;-61
2022/12/13 12:37:03;;;;;;;6.20;3.90;;;;;;;;;;5087182;28;20448;-62
2022/12/13 12:39:35;;;;;;;5.03;3.60;;;;;;;;;;5096761;28;20215;-61
2022/12/13 12:42:08;;;;;;;1.67;1.13;;;;;;;;;;5106054;28;20277;-60
2022/12/13 12:44:41;;;;;;;3.27;2.70;;;;;;;;;;5107844;28;20673;-60
2022/12/13 12:47:17;;;;;;;2.33;1.77;;;;;;;;;;5105862;28;20240;-61
2022/12/13 12:49:52;;;;;;;4.60;1.57;;;;;;;;;;5097756;28;20208;-60
2022/12/13 12:52:23;;;;;;;1.17;1.17;;;;;;;;;;5095115;28;20215;-59
2022/12/13 12:55:01;;;;;;;6.20;3.43;;;;;;;;;;5092280;28;20593;-60
2022/12/13 12:57:33;;;;;;;1.60;1.50;;;;;;;;;;5088444;28;20235;-61
2022/12/13 13:00:03;;;;;;;0.73;0.73;;;;;;;;;;5098602;28;20671;-60
2022/12/13 13:02:36;;;;;;;2.30;2.17;;;;;;;;;;5105854;28;20236;-60
2022/12/13 13:05:09;;;;;;;1.30;0.70;;;;;;;;;;5105239;28;20755;-60
2022/12/13 13:07:39;;;;;;;1.73;1.30;;;;;;;;;;5104787;28;20277;-60
2022/12/13 13:10:07;;;;;;;10.83;2.43;;;;;;;;;;5106457;28;20203;-61
2022/12/13 13:12:37;;;;;;;0.83;0.83;;;;;;;;;;5107078;28;20210;-60
2022/12/13 13:15:39;;;;;;;3.47;2.63;;;;;;;;;;5090861;28;20218;-60
2022/12/13 13:18:28;;;;;;;2.77;2.50;;;;;;;;;;5086697;28;20207;-60
2022/12/13 13:21:10;;;;;;;2.10;1.70;;;;;;;;;;5087038;28;20212;-60
2022/12/13 13:23:38;;;;;;;2.90;2.37;;;;;;;;;;5103922;28;20211;-60
2022/12/13 13:26:05;;;;;;;7.73;3.50;;;;;;;;;;5105290;28;20216;-60
2022/12/13 13:28:32;;;;;;;2.10;2.00;;;;;;;;;;5106193;28;20234;-60
2022/12/13 13:31:02;;;;;;;3.93;2.33;;;;;;;;;;5108115;28;20207;-60
2022/12/13 13:33:44;;;;;;;0.47;0.47;;;;;;;;;;5103471;28;20199;-60
2022/12/13 13:36:31;;;;;;;4.53;2.00;;;;;;;;;;5108993;28;20211;-60
2022/12/13 13:39:00;;;;;;;3.93;1.67;;;;;;;;;;5110360;28;20568;-60
2022/12/13 13:41:54;;;;;;;2.80;2.57;;;;;;;;;;5106740;28;20201;-60
2022/12/13 13:44:33;;;;;;;2.17;2.07;;;;;;;;;;5109465;28;20260;-63
2022/12/13 13:47:14;;;;;;;2.53;2.33;;;;;;;;;;5095228;28;20227;-60
2022/12/13 13:49:47;;;;;;;3.60;2.43;;;;;;;;;;5110424;28;20218;-60
2022/12/13 13:52:19;;;;;;;3.93;2.30;;;;;;;;;;5095872;28;20216;-67
2022/12/13 13:54:59;;;;;;;1.87;1.77;;;;;;;;;;5110283;28;20735;-60
2022/12/13 13:57:45;;;;;;;2.27;1.63;;;;;;;;;;5089930;28;20210;-61
2022/12/13 14:00:16;;;;;;;1.60;1.43;;;;;;;;;;5091130;28;20207;-60
2022/12/13 14:02:58;;;;;;;4.00;3.23;;;;;;;;;;5105944;28;20212;-60
2022/12/13 14:05:35;;;;;;;5.13;2.27;;;;;;;;;;5089821;28;20217;-60
2022/12/13 14:08:19;;;;;;;6.10;2.37;;;;;;;;;;5089191;28;20237;-60
2022/12/13 14:11:06;;;;;;;4.10;2.63;;;;;;;;;;5089534;28;20203;-59
2022/12/13 14:14:00;;;;;;;4.53;4.17;;;;;;;;;;5089419;28;20224;-60
2022/12/13 14:16:57;;;;;;;2.33;1.90;;;;;;;;;;5089267;28;20303;-61
2022/12/13 14:19:31;;;;;;;5.17;2.13;;;;;;;;;;5089630;28;20209;-60
2022/12/13 14:22:08;;;;;;;2.67;1.90;;;;;;;;;;5092620;28;20678;-60
2022/12/13 14:24:38;;;;;;;2.90;1.90;;;;;;;;;;5107782;28;20215;-60
2022/12/13 14:27:15;;;;;;;3.90;1.73;;;;;;;;;;5109835;28;20234;-60
2022/12/13 14:29:43;;;;;;;0.77;0.77;;;;;;;;;;5109756;28;20210;-61
2022/12/13 14:32:11;;;;;;;2.33;2.23;;;;;;;;;;5109635;28;20312;-61
2022/12/13 14:34:38;;;;;;;2.00;1.90;;;;;;;;;;5109628;28;20758;-61
2022/12/13 14:37:06;;;;;;;2.27;2.07;;;;;;;;;;5109827;28;20214;-60
2022/12/13 14:39:34;;;;;;;3.73;2.13;;;;;;;;;;5109390;28;20216;-60
2022/12/13 14:42:03;;;;;;;1.60;1.50;;;;;;;;;;5108961;28;20303;-61
2022/12/13 14:44:38;;;;;;;3.40;2.17;;;;;;;;;;5109829;28;20670;-63
2022/12/13 14:47:07;;;;;;;2.00;1.87;;;;;;;;;;5110691;28;20246;-62
2022/12/13 14:49:45;;;;;;;6.47;4.30;;;;;;;;;;5107416;28;20215;-62
2022/12/13 14:52:20;;;;;;;7.00;3.20;;;;;;;;;;5109958;28;20260;-62
2022/12/13 14:54:52;;;;;;;8.20;5.10;;;;;;;;;;5109964;28;20281;-62
2022/12/13 14:57:23;;;;;;;4.63;3.27;;;;;;;;;;5110326;28;20213;-64
2022/12/13 14:59:56;;;;;;;3.40;2.53;;;;;;;;;;5109902;27;20611;-62
2022/12/13 15:02:35;;;;;;;3.83;3.20;;;;;;;;;;5109488;28;20230;-63
2022/12/13 15:05:10;;;;;;;5.10;3.87;;;;;;;;;;5109799;28;20701;-62
2022/12/13 15:07:39;;;;;;;5.50;3.40;;;;;;;;;;5109482;28;20228;-62
2022/12/13 15:10:19;;;;;;;5.83;4.27;;;;;;;;;;5109702;28;20211;-61
2022/12/13 15:12:51;;;;;;;4.00;2.37;;;;;;;;;;5109895;28;20237;-61